sensor_id;sensor_type;location;lat;lon;timestamp;P1;durP1;ratioP1;P2;durP2;ratioP2
66860;SDS011;53770;42.334;23.550;2022-09-03T00:01:43;20.80;;;10.25;;
66860;SDS011;53770;42.334;23.550;2022-09-03T00:04:16;19.02;;;10.38;;
66860;SDS011;53770;42.334;23.550;2022-09-03T00:06:50;22.02;;;11.25;;
66860;SDS011;53770;42.334;23.550;2022-09-03T00:09:24;22.47;;;11.97;;
66860;SDS011;53770;42.334;23.550;2022-09-03T00:11:56;23.73;;;11.55;;
66860;SDS011;53770;42.334;23.550;2022-09-03T00:14:30;25.23;;;12.70;;
66860;SDS011;53770;42.334;23.550;2022-09-03T00:17:04;22.42;;;11.57;;
66860;SDS011;53770;42.334;23.550;2022-09-03T00:19:36;22.15;;;11.20;;
66860;SDS011;53770;42.334;23.550;2022-09-03T00:22:07;20.57;;;10.57;;
66860;SDS011;53770;42.334;23.550;2022-09-03T00:24:39;19.67;;;10.45;;
66860;SDS011;53770;42.334;23.550;2022-09-03T00:27:10;16.65;;;9.88;;
66860;SDS011;53770;42.334;23.550;2022-09-03T00:29:42;21.33;;;10.10;;
66860;SDS011;53770;42.334;23.550;2022-09-03T00:32:17;18.95;;;10.30;;
66860;SDS011;53770;42.334;23.550;2022-09-03T00:34:48;18.60;;;9.87;;
66860;SDS011;53770;42.334;23.550;2022-09-03T00:37:17;16.60;;;9.20;;
66860;SDS011;53770;42.334;23.550;2022-09-03T00:39:44;19.10;;;10.65;;
66860;SDS011;53770;42.334;23.550;2022-09-03T00:42:21;17.83;;;10.45;;
66860;SDS011;53770;42.334;23.550;2022-09-03T00:45:07;19.52;;;10.00;;
66860;SDS011;53770;42.334;23.550;2022-09-03T00:47:46;19.67;;;9.90;;
66860;SDS011;53770;42.334;23.550;2022-09-03T00:50:25;21.10;;;10.90;;
66860;SDS011;53770;42.334;23.550;2022-09-03T00:52:59;22.23;;;11.52;;
66860;SDS011;53770;42.334;23.550;2022-09-03T00:55:35;24.50;;;11.82;;
66860;SDS011;53770;42.334;23.550;2022-09-03T00:58:17;22.55;;;11.05;;
66860;SDS011;53770;42.334;23.550;2022-09-03T01:00:54;20.00;;;10.57;;
66860;SDS011;53770;42.334;23.550;2022-09-03T01:03:25;21.90;;;10.38;;
66860;SDS011;53770;42.334;23.550;2022-09-03T01:06:06;16.08;;;8.57;;
66860;SDS011;53770;42.334;23.550;2022-09-03T01:11:36;16.55;;;8.98;;
66860;SDS011;53770;42.334;23.550;2022-09-03T01:14:11;14.90;;;8.27;;
66860;SDS011;53770;42.334;23.550;2022-09-03T01:16:45;16.83;;;9.07;;
66860;SDS011;53770;42.334;23.550;2022-09-03T01:19:24;15.15;;;8.80;;
66860;SDS011;53770;42.334;23.550;2022-09-03T01:22:18;15.73;;;8.80;;
66860;SDS011;53770;42.334;23.550;2022-09-03T01:25:11;21.13;;;8.82;;
66860;SDS011;53770;42.334;23.550;2022-09-03T01:27:44;14.70;;;8.63;;
66860;SDS011;53770;42.334;23.550;2022-09-03T01:30:20;14.65;;;8.00;;
66860;SDS011;53770;42.334;23.550;2022-09-03T01:32:50;17.00;;;8.75;;
66860;SDS011;53770;42.334;23.550;2022-09-03T01:35:27;17.33;;;9.30;;
66860;SDS011;53770;42.334;23.550;2022-09-03T01:38:02;17.92;;;9.18;;
66860;SDS011;53770;42.334;23.550;2022-09-03T01:40:41;15.87;;;8.73;;
66860;SDS011;53770;42.334;23.550;2022-09-03T01:43:18;17.60;;;8.68;;
66860;SDS011;53770;42.334;23.550;2022-09-03T01:45:58;18.45;;;8.13;;
66860;SDS011;53770;42.334;23.550;2022-09-03T01:51:18;14.85;;;7.90;;
66860;SDS011;53770;42.334;23.550;2022-09-03T01:56:44;13.75;;;7.18;;
66860;SDS011;53770;42.334;23.550;2022-09-03T01:59:28;13.55;;;7.95;;
66860;SDS011;53770;42.334;23.550;2022-09-03T02:02:00;12.13;;;7.10;;
66860;SDS011;53770;42.334;23.550;2022-09-03T02:04:31;13.13;;;7.18;;
66860;SDS011;53770;42.334;23.550;2022-09-03T02:06:58;11.07;;;6.70;;
66860;SDS011;53770;42.334;23.550;2022-09-03T02:09:26;12.98;;;7.47;;
66860;SDS011;53770;42.334;23.550;2022-09-03T02:11:54;15.68;;;7.20;;
66860;SDS011;53770;42.334;23.550;2022-09-03T02:14:24;11.15;;;6.70;;
66860;SDS011;53770;42.334;23.550;2022-09-03T02:16:52;9.63;;;6.25;;
66860;SDS011;53770;42.334;23.550;2022-09-03T02:19:25;12.23;;;6.10;;
66860;SDS011;53770;42.334;23.550;2022-09-03T02:21:54;14.73;;;6.72;;
66860;SDS011;53770;42.334;23.550;2022-09-03T02:24:22;13.30;;;6.45;;
66860;SDS011;53770;42.334;23.550;2022-09-03T02:26:50;9.75;;;6.25;;
66860;SDS011;53770;42.334;23.550;2022-09-03T02:29:18;10.05;;;6.63;;
66860;SDS011;53770;42.334;23.550;2022-09-03T02:31:45;13.30;;;6.70;;
66860;SDS011;53770;42.334;23.550;2022-09-03T02:34:12;10.27;;;6.18;;
66860;SDS011;53770;42.334;23.550;2022-09-03T02:36:42;10.38;;;6.13;;
66860;SDS011;53770;42.334;23.550;2022-09-03T02:39:10;10.20;;;5.88;;
66860;SDS011;53770;42.334;23.550;2022-09-03T02:41:37;12.18;;;6.15;;
66860;SDS011;53770;42.334;23.550;2022-09-03T02:44:05;11.27;;;6.17;;
66860;SDS011;53770;42.334;23.550;2022-09-03T02:46:38;10.88;;;6.28;;
66860;SDS011;53770;42.334;23.550;2022-09-03T02:49:06;13.45;;;6.13;;
66860;SDS011;53770;42.334;23.550;2022-09-03T02:51:34;11.07;;;5.97;;
66860;SDS011;53770;42.334;23.550;2022-09-03T02:54:03;11.18;;;6.15;;
66860;SDS011;53770;42.334;23.550;2022-09-03T02:56:30;12.13;;;6.07;;
66860;SDS011;53770;42.334;23.550;2022-09-03T02:58:56;10.50;;;6.25;;
66860;SDS011;53770;42.334;23.550;2022-09-03T03:01:24;13.13;;;6.50;;
66860;SDS011;53770;42.334;23.550;2022-09-03T03:03:51;14.05;;;6.70;;
66860;SDS011;53770;42.334;23.550;2022-09-03T03:06:19;13.75;;;6.78;;
66860;SDS011;53770;42.334;23.550;2022-09-03T03:08:46;10.03;;;6.40;;
66860;SDS011;53770;42.334;23.550;2022-09-03T03:11:14;10.32;;;5.90;;
66860;SDS011;53770;42.334;23.550;2022-09-03T03:13:42;10.88;;;6.10;;
66860;SDS011;53770;42.334;23.550;2022-09-03T03:16:10;13.52;;;6.22;;
66860;SDS011;53770;42.334;23.550;2022-09-03T03:18:37;12.10;;;6.38;;
66860;SDS011;53770;42.334;23.550;2022-09-03T03:21:04;12.03;;;6.27;;
66860;SDS011;53770;42.334;23.550;2022-09-03T03:23:32;10.32;;;6.13;;
66860;SDS011;53770;42.334;23.550;2022-09-03T03:25:59;13.48;;;6.10;;
66860;SDS011;53770;42.334;23.550;2022-09-03T03:28:28;9.38;;;6.00;;
66860;SDS011;53770;42.334;23.550;2022-09-03T03:30:58;9.77;;;5.78;;
66860;SDS011;53770;42.334;23.550;2022-09-03T03:33:25;11.07;;;6.00;;
66860;SDS011;53770;42.334;23.550;2022-09-03T03:35:51;10.85;;;5.95;;
66860;SDS011;53770;42.334;23.550;2022-09-03T03:38:19;10.75;;;5.82;;
66860;SDS011;53770;42.334;23.550;2022-09-03T03:40:45;10.95;;;6.70;;
66860;SDS011;53770;42.334;23.550;2022-09-03T03:43:12;13.52;;;6.53;;
66860;SDS011;53770;42.334;23.550;2022-09-03T03:45:40;9.63;;;6.03;;
66860;SDS011;53770;42.334;23.550;2022-09-03T03:48:07;12.13;;;6.32;;
66860;SDS011;53770;42.334;23.550;2022-09-03T03:50:34;10.50;;;5.70;;
66860;SDS011;53770;42.334;23.550;2022-09-03T03:53:02;9.13;;;5.63;;
66860;SDS011;53770;42.334;23.550;2022-09-03T03:55:28;11.25;;;5.70;;
66860;SDS011;53770;42.334;23.550;2022-09-03T03:57:57;12.20;;;6.17;;
66860;SDS011;53770;42.334;23.550;2022-09-03T04:00:24;11.30;;;5.72;;
66860;SDS011;53770;42.334;23.550;2022-09-03T04:02:52;9.65;;;5.53;;
66860;SDS011;53770;42.334;23.550;2022-09-03T04:05:19;14.52;;;6.72;;
66860;SDS011;53770;42.334;23.550;2022-09-03T04:07:45;10.75;;;5.75;;
66860;SDS011;53770;42.334;23.550;2022-09-03T04:10:12;11.80;;;6.13;;
66860;SDS011;53770;42.334;23.550;2022-09-03T04:12:39;11.68;;;6.70;;
66860;SDS011;53770;42.334;23.550;2022-09-03T04:15:07;9.90;;;6.43;;
66860;SDS011;53770;42.334;23.550;2022-09-03T04:17:34;11.25;;;5.82;;
66860;SDS011;53770;42.334;23.550;2022-09-03T04:20:03;12.00;;;5.75;;
66860;SDS011;53770;42.334;23.550;2022-09-03T04:22:30;11.10;;;5.97;;
66860;SDS011;53770;42.334;23.550;2022-09-03T04:24:57;11.75;;;5.95;;
66860;SDS011;53770;42.334;23.550;2022-09-03T04:27:24;10.55;;;5.97;;
66860;SDS011;53770;42.334;23.550;2022-09-03T04:29:51;10.43;;;6.30;;
66860;SDS011;53770;42.334;23.550;2022-09-03T04:32:18;13.73;;;6.55;;
66860;SDS011;53770;42.334;23.550;2022-09-03T04:35:04;12.33;;;6.10;;
66860;SDS011;53770;42.334;23.550;2022-09-03T04:37:31;13.18;;;6.93;;
66860;SDS011;53770;42.334;23.550;2022-09-03T04:39:58;14.05;;;6.95;;
66860;SDS011;53770;42.334;23.550;2022-09-03T04:42:25;13.77;;;7.18;;
66860;SDS011;53770;42.334;23.550;2022-09-03T04:44:53;15.32;;;6.88;;
66860;SDS011;53770;42.334;23.550;2022-09-03T04:47:19;14.73;;;7.40;;
66860;SDS011;53770;42.334;23.550;2022-09-03T04:49:46;12.90;;;7.13;;
66860;SDS011;53770;42.334;23.550;2022-09-03T04:52:14;14.52;;;7.10;;
66860;SDS011;53770;42.334;23.550;2022-09-03T04:54:41;17.08;;;6.45;;
66860;SDS011;53770;42.334;23.550;2022-09-03T04:57:08;12.60;;;6.85;;
66860;SDS011;53770;42.334;23.550;2022-09-03T04:59:34;17.07;;;7.37;;
66860;SDS011;53770;42.334;23.550;2022-09-03T05:02:01;13.73;;;7.30;;
66860;SDS011;53770;42.334;23.550;2022-09-03T05:04:28;17.13;;;6.45;;
66860;SDS011;53770;42.334;23.550;2022-09-03T05:06:55;12.55;;;5.90;;
66860;SDS011;53770;42.334;23.550;2022-09-03T05:09:23;11.40;;;6.10;;
66860;SDS011;53770;42.334;23.550;2022-09-03T05:11:49;13.03;;;5.93;;
66860;SDS011;53770;42.334;23.550;2022-09-03T05:14:16;12.27;;;6.13;;
66860;SDS011;53770;42.334;23.550;2022-09-03T05:16:43;13.75;;;6.70;;
66860;SDS011;53770;42.334;23.550;2022-09-03T05:19:10;10.73;;;6.40;;
66860;SDS011;53770;42.334;23.550;2022-09-03T05:21:37;12.82;;;6.78;;
66860;SDS011;53770;42.334;23.550;2022-09-03T05:24:03;15.07;;;7.00;;
66860;SDS011;53770;42.334;23.550;2022-09-03T05:26:34;14.50;;;7.22;;
66860;SDS011;53770;42.334;23.550;2022-09-03T05:29:03;15.55;;;6.82;;
66860;SDS011;53770;42.334;23.550;2022-09-03T05:31:32;14.40;;;6.75;;
66860;SDS011;53770;42.334;23.550;2022-09-03T05:34:00;13.93;;;7.70;;
66860;SDS011;53770;42.334;23.550;2022-09-03T05:36:29;14.73;;;6.73;;
66860;SDS011;53770;42.334;23.550;2022-09-03T05:38:58;14.30;;;7.35;;
66860;SDS011;53770;42.334;23.550;2022-09-03T05:41:25;14.60;;;7.13;;
66860;SDS011;53770;42.334;23.550;2022-09-03T05:43:55;12.07;;;6.03;;
66860;SDS011;53770;42.334;23.550;2022-09-03T05:46:23;13.52;;;6.80;;
66860;SDS011;53770;42.334;23.550;2022-09-03T05:48:56;14.77;;;6.27;;
66860;SDS011;53770;42.334;23.550;2022-09-03T05:51:23;12.10;;;5.88;;
66860;SDS011;53770;42.334;23.550;2022-09-03T05:53:50;11.27;;;5.60;;
66860;SDS011;53770;42.334;23.550;2022-09-03T05:56:19;12.57;;;5.97;;
66860;SDS011;53770;42.334;23.550;2022-09-03T05:58:48;14.57;;;6.25;;
66860;SDS011;53770;42.334;23.550;2022-09-03T06:01:18;12.00;;;6.03;;
66860;SDS011;53770;42.334;23.550;2022-09-03T06:03:47;12.82;;;5.55;;
66860;SDS011;53770;42.334;23.550;2022-09-03T06:06:19;15.20;;;6.00;;
66860;SDS011;53770;42.334;23.550;2022-09-03T06:08:49;14.40;;;6.57;;
66860;SDS011;53770;42.334;23.550;2022-09-03T06:11:16;13.73;;;6.72;;
66860;SDS011;53770;42.334;23.550;2022-09-03T06:13:43;13.60;;;6.33;;
66860;SDS011;53770;42.334;23.550;2022-09-03T06:16:11;12.43;;;6.03;;
66860;SDS011;53770;42.334;23.550;2022-09-03T06:18:39;10.82;;;6.15;;
66860;SDS011;53770;42.334;23.550;2022-09-03T06:21:06;10.05;;;5.45;;
66860;SDS011;53770;42.334;23.550;2022-09-03T06:23:34;9.65;;;5.75;;
66860;SDS011;53770;42.334;23.550;2022-09-03T06:26:02;9.63;;;5.37;;
66860;SDS011;53770;42.334;23.550;2022-09-03T06:28:30;10.10;;;5.32;;
66860;SDS011;53770;42.334;23.550;2022-09-03T06:30:58;10.50;;;5.65;;
66860;SDS011;53770;42.334;23.550;2022-09-03T06:33:26;9.20;;;5.30;;
66860;SDS011;53770;42.334;23.550;2022-09-03T06:35:56;10.75;;;5.93;;
66860;SDS011;53770;42.334;23.550;2022-09-03T06:38:23;11.53;;;6.23;;
66860;SDS011;53770;42.334;23.550;2022-09-03T06:40:52;13.07;;;6.25;;
66860;SDS011;53770;42.334;23.550;2022-09-03T06:43:19;11.85;;;5.68;;
66860;SDS011;53770;42.334;23.550;2022-09-03T06:45:56;10.70;;;5.60;;
66860;SDS011;53770;42.334;23.550;2022-09-03T06:48:24;10.43;;;5.20;;
66860;SDS011;53770;42.334;23.550;2022-09-03T06:50:56;9.10;;;5.17;;
66860;SDS011;53770;42.334;23.550;2022-09-03T06:53:26;8.45;;;5.03;;
66860;SDS011;53770;42.334;23.550;2022-09-03T06:55:54;11.13;;;5.55;;
66860;SDS011;53770;42.334;23.550;2022-09-03T06:58:22;10.32;;;5.10;;
66860;SDS011;53770;42.334;23.550;2022-09-03T07:00:49;10.48;;;5.28;;
66860;SDS011;53770;42.334;23.550;2022-09-03T07:03:17;9.40;;;5.57;;
66860;SDS011;53770;42.334;23.550;2022-09-03T07:05:45;8.63;;;5.15;;
66860;SDS011;53770;42.334;23.550;2022-09-03T07:08:13;10.00;;;5.47;;
66860;SDS011;53770;42.334;23.550;2022-09-03T07:10:40;9.00;;;5.35;;
66860;SDS011;53770;42.334;23.550;2022-09-03T07:13:11;9.70;;;5.13;;
66860;SDS011;53770;42.334;23.550;2022-09-03T07:15:37;9.80;;;5.23;;
66860;SDS011;53770;42.334;23.550;2022-09-03T07:18:05;8.88;;;5.30;;
66860;SDS011;53770;42.334;23.550;2022-09-03T07:20:33;9.13;;;5.10;;
66860;SDS011;53770;42.334;23.550;2022-09-03T07:23:00;9.73;;;4.90;;
66860;SDS011;53770;42.334;23.550;2022-09-03T07:25:28;10.13;;;5.80;;
66860;SDS011;53770;42.334;23.550;2022-09-03T07:27:56;11.23;;;6.00;;
66860;SDS011;53770;42.334;23.550;2022-09-03T07:30:24;9.65;;;5.82;;
66860;SDS011;53770;42.334;23.550;2022-09-03T07:32:51;7.80;;;5.20;;
66860;SDS011;53770;42.334;23.550;2022-09-03T07:35:18;8.60;;;4.85;;
66860;SDS011;53770;42.334;23.550;2022-09-03T07:37:45;8.88;;;4.53;;
66860;SDS011;53770;42.334;23.550;2022-09-03T07:40:11;7.80;;;4.90;;
66860;SDS011;53770;42.334;23.550;2022-09-03T07:42:41;9.27;;;4.78;;
66860;SDS011;53770;42.334;23.550;2022-09-03T07:45:08;8.52;;;5.55;;
66860;SDS011;53770;42.334;23.550;2022-09-03T07:47:36;11.27;;;4.75;;
66860;SDS011;53770;42.334;23.550;2022-09-03T07:50:05;8.32;;;4.93;;
66860;SDS011;53770;42.334;23.550;2022-09-03T07:52:32;8.27;;;5.13;;
66860;SDS011;53770;42.334;23.550;2022-09-03T07:54:59;8.35;;;4.65;;
66860;SDS011;53770;42.334;23.550;2022-09-03T07:57:27;10.65;;;4.90;;
66860;SDS011;53770;42.334;23.550;2022-09-03T07:59:55;7.95;;;4.70;;
66860;SDS011;53770;42.334;23.550;2022-09-03T08:02:21;9.07;;;4.15;;
66860;SDS011;53770;42.334;23.550;2022-09-03T08:04:49;7.30;;;4.60;;
66860;SDS011;53770;42.334;23.550;2022-09-03T08:07:16;7.53;;;4.55;;
66860;SDS011;53770;42.334;23.550;2022-09-03T08:09:42;9.30;;;5.15;;
66860;SDS011;53770;42.334;23.550;2022-09-03T08:12:09;8.18;;;4.93;;
66860;SDS011;53770;42.334;23.550;2022-09-03T08:14:36;8.35;;;5.10;;
66860;SDS011;53770;42.334;23.550;2022-09-03T08:17:04;7.93;;;4.97;;
66860;SDS011;53770;42.334;23.550;2022-09-03T08:19:32;8.13;;;4.80;;
66860;SDS011;53770;42.334;23.550;2022-09-03T08:21:59;10.68;;;4.70;;
66860;SDS011;53770;42.334;23.550;2022-09-03T08:24:25;8.40;;;4.50;;
66860;SDS011;53770;42.334;23.550;2022-09-03T08:26:52;6.85;;;4.75;;
66860;SDS011;53770;42.334;23.550;2022-09-03T08:29:19;8.00;;;5.07;;
66860;SDS011;53770;42.334;23.550;2022-09-03T08:31:46;7.57;;;5.22;;
66860;SDS011;53770;42.334;23.550;2022-09-03T08:34:15;7.93;;;4.40;;
66860;SDS011;53770;42.334;23.550;2022-09-03T08:36:41;6.78;;;4.32;;
66860;SDS011;53770;42.334;23.550;2022-09-03T08:39:10;8.63;;;4.60;;
66860;SDS011;53770;42.334;23.550;2022-09-03T08:41:41;8.80;;;5.00;;
66860;SDS011;53770;42.334;23.550;2022-09-03T08:44:24;8.40;;;4.80;;
66860;SDS011;53770;42.334;23.550;2022-09-03T08:46:54;6.72;;;4.43;;
66860;SDS011;53770;42.334;23.550;2022-09-03T08:49:26;7.00;;;4.70;;
66860;SDS011;53770;42.334;23.550;2022-09-03T08:51:59;6.80;;;4.18;;
66860;SDS011;53770;42.334;23.550;2022-09-03T08:54:28;6.67;;;4.50;;
66860;SDS011;53770;42.334;23.550;2022-09-03T08:56:57;8.82;;;4.60;;
66860;SDS011;53770;42.334;23.550;2022-09-03T08:59:26;7.53;;;4.68;;
66860;SDS011;53770;42.334;23.550;2022-09-03T09:01:54;8.23;;;5.32;;
66860;SDS011;53770;42.334;23.550;2022-09-03T09:04:31;6.88;;;4.70;;
66860;SDS011;53770;42.334;23.550;2022-09-03T09:07:07;6.17;;;3.87;;
66860;SDS011;53770;42.334;23.550;2022-09-03T09:09:41;6.25;;;4.40;;
66860;SDS011;53770;42.334;23.550;2022-09-03T09:12:16;6.78;;;4.50;;
66860;SDS011;53770;42.334;23.550;2022-09-03T09:14:56;9.73;;;4.57;;
66860;SDS011;53770;42.334;23.550;2022-09-03T09:17:45;6.95;;;3.92;;
66860;SDS011;53770;42.334;23.550;2022-09-03T09:20:22;7.83;;;4.50;;
66860;SDS011;53770;42.334;23.550;2022-09-03T09:22:54;6.38;;;4.03;;
66860;SDS011;53770;42.334;23.550;2022-09-03T09:25:24;9.02;;;5.32;;
66860;SDS011;53770;42.334;23.550;2022-09-03T09:27:53;7.00;;;5.63;;
66860;SDS011;53770;42.334;23.550;2022-09-03T09:30:25;10.32;;;6.38;;
66860;SDS011;53770;42.334;23.550;2022-09-03T09:32:53;11.20;;;7.13;;
66860;SDS011;53770;42.334;23.550;2022-09-03T09:35:21;8.55;;;6.30;;
66860;SDS011;53770;42.334;23.550;2022-09-03T09:37:50;6.68;;;5.40;;
66860;SDS011;53770;42.334;23.550;2022-09-03T09:40:22;7.82;;;5.13;;
66860;SDS011;53770;42.334;23.550;2022-09-03T09:43:05;4.97;;;4.25;;
66860;SDS011;53770;42.334;23.550;2022-09-03T09:45:35;5.23;;;4.17;;
66860;SDS011;53770;42.334;23.550;2022-09-03T09:48:07;7.32;;;5.38;;
66860;SDS011;53770;42.334;23.550;2022-09-03T09:50:39;10.60;;;5.55;;
66860;SDS011;53770;42.334;23.550;2022-09-03T09:53:07;7.13;;;5.38;;
66860;SDS011;53770;42.334;23.550;2022-09-03T09:55:50;7.05;;;5.03;;
66860;SDS011;53770;42.334;23.550;2022-09-03T09:58:19;7.60;;;5.73;;
66860;SDS011;53770;42.334;23.550;2022-09-03T10:00:58;7.38;;;6.68;;
66860;SDS011;53770;42.334;23.550;2022-09-03T10:03:28;7.82;;;6.88;;
66860;SDS011;53770;42.334;23.550;2022-09-03T10:06:04;7.10;;;6.43;;
66860;SDS011;53770;42.334;23.550;2022-09-03T10:08:50;9.35;;;7.35;;
66860;SDS011;53770;42.334;23.550;2022-09-03T10:11:17;8.43;;;7.40;;
66860;SDS011;53770;42.334;23.550;2022-09-03T10:13:49;8.68;;;7.78;;
66860;SDS011;53770;42.334;23.550;2022-09-03T10:16:19;8.35;;;7.65;;
66860;SDS011;53770;42.334;23.550;2022-09-03T10:18:52;7.22;;;4.82;;
66860;SDS011;53770;42.334;23.550;2022-09-03T10:21:28;5.60;;;5.00;;
66860;SDS011;53770;42.334;23.550;2022-09-03T10:23:58;5.93;;;5.27;;
66860;SDS011;53770;42.334;23.550;2022-09-03T10:26:41;6.40;;;5.80;;
66860;SDS011;53770;42.334;23.550;2022-09-03T10:29:10;7.03;;;5.38;;
66860;SDS011;53770;42.334;23.550;2022-09-03T10:31:43;5.88;;;4.70;;
66860;SDS011;53770;42.334;23.550;2022-09-03T10:34:21;6.30;;;4.35;;
66860;SDS011;53770;42.334;23.550;2022-09-03T10:37:05;6.43;;;5.37;;
66860;SDS011;53770;42.334;23.550;2022-09-03T10:39:47;6.40;;;5.80;;
66860;SDS011;53770;42.334;23.550;2022-09-03T10:42:27;11.40;;;7.55;;
66860;SDS011;53770;42.334;23.550;2022-09-03T10:45:04;6.63;;;6.13;;
66860;SDS011;53770;42.334;23.550;2022-09-03T10:47:57;9.43;;;7.35;;
66860;SDS011;53770;42.334;23.550;2022-09-03T10:50:33;7.70;;;7.10;;
66860;SDS011;53770;42.334;23.550;2022-09-03T10:53:10;8.90;;;8.02;;
66860;SDS011;53770;42.334;23.550;2022-09-03T10:55:47;5.53;;;5.00;;
66860;SDS011;53770;42.334;23.550;2022-09-03T10:58:36;5.13;;;4.22;;
66860;SDS011;53770;42.334;23.550;2022-09-03T11:01:16;7.40;;;6.80;;
66860;SDS011;53770;42.334;23.550;2022-09-03T11:03:51;7.50;;;6.90;;
66860;SDS011;53770;42.334;23.550;2022-09-03T11:06:24;7.78;;;7.07;;
66860;SDS011;53770;42.334;23.550;2022-09-03T11:08:57;8.32;;;7.63;;
66860;SDS011;53770;42.334;23.550;2022-09-03T11:11:26;9.32;;;8.63;;
66860;SDS011;53770;42.334;23.550;2022-09-03T11:13:58;6.82;;;6.18;;
66860;SDS011;53770;42.334;23.550;2022-09-03T11:16:33;7.38;;;6.68;;
66860;SDS011;53770;42.334;23.550;2022-09-03T11:19:03;5.03;;;4.53;;
66860;SDS011;53770;42.334;23.550;2022-09-03T11:21:33;7.45;;;6.75;;
66860;SDS011;53770;42.334;23.550;2022-09-03T11:24:05;6.90;;;6.30;;
66860;SDS011;53770;42.334;23.550;2022-09-03T11:26:38;8.05;;;7.35;;
66860;SDS011;53770;42.334;23.550;2022-09-03T11:29:09;8.38;;;7.70;;
66860;SDS011;53770;42.334;23.550;2022-09-03T11:31:48;9.18;;;8.48;;
66860;SDS011;53770;42.334;23.550;2022-09-03T11:34:26;6.00;;;5.40;;
66860;SDS011;53770;42.334;23.550;2022-09-03T11:37:06;5.50;;;4.85;;
66860;SDS011;53770;42.334;23.550;2022-09-03T11:39:43;6.15;;;5.65;;
66860;SDS011;53770;42.334;23.550;2022-09-03T11:42:11;4.57;;;4.17;;
66860;SDS011;53770;42.334;23.550;2022-09-03T11:44:48;6.05;;;5.22;;
66860;SDS011;53770;42.334;23.550;2022-09-03T11:47:20;5.65;;;4.93;;
66860;SDS011;53770;42.334;23.550;2022-09-03T11:49:49;7.15;;;5.55;;
66860;SDS011;53770;42.334;23.550;2022-09-03T11:52:26;5.97;;;4.10;;
66860;SDS011;53770;42.334;23.550;2022-09-03T11:54:57;6.07;;;4.07;;
66860;SDS011;53770;42.334;23.550;2022-09-03T11:57:25;5.53;;;4.90;;
66860;SDS011;53770;42.334;23.550;2022-09-03T11:59:53;4.82;;;3.88;;
66860;SDS011;53770;42.334;23.550;2022-09-03T12:02:33;5.47;;;4.18;;
66860;SDS011;53770;42.334;23.550;2022-09-03T12:05:10;5.35;;;3.70;;
66860;SDS011;53770;42.334;23.550;2022-09-03T12:07:48;4.83;;;3.87;;
66860;SDS011;53770;42.334;23.550;2022-09-03T12:10:32;6.60;;;3.17;;
66860;SDS011;53770;42.334;23.550;2022-09-03T12:13:14;7.18;;;3.13;;
66860;SDS011;53770;42.334;23.550;2022-09-03T12:15:53;6.20;;;4.32;;
66860;SDS011;53770;42.334;23.550;2022-09-03T12:18:32;3.75;;;2.78;;
66860;SDS011;53770;42.334;23.550;2022-09-03T12:21:01;5.80;;;3.10;;
66860;SDS011;53770;42.334;23.550;2022-09-03T12:23:32;5.80;;;3.30;;
66860;SDS011;53770;42.334;23.550;2022-09-03T12:26:03;5.00;;;4.30;;
66860;SDS011;53770;42.334;23.550;2022-09-03T12:28:33;8.35;;;5.43;;
66860;SDS011;53770;42.334;23.550;2022-09-03T12:31:05;5.35;;;4.20;;
66860;SDS011;53770;42.334;23.550;2022-09-03T12:33:46;6.40;;;4.00;;
66860;SDS011;53770;42.334;23.550;2022-09-03T12:36:13;6.15;;;5.53;;
66860;SDS011;53770;42.334;23.550;2022-09-03T12:38:41;9.23;;;8.25;;
66860;SDS011;53770;42.334;23.550;2022-09-03T12:41:20;7.35;;;6.65;;
66860;SDS011;53770;42.334;23.550;2022-09-03T12:43:52;5.32;;;4.03;;
66860;SDS011;53770;42.334;23.550;2022-09-03T12:46:24;5.90;;;3.93;;
66860;SDS011;53770;42.334;23.550;2022-09-03T12:48:53;5.03;;;3.58;;
66860;SDS011;53770;42.334;23.550;2022-09-03T12:51:30;7.40;;;6.65;;
66860;SDS011;53770;42.334;23.550;2022-09-03T12:53:57;7.60;;;7.00;;
66860;SDS011;53770;42.334;23.550;2022-09-03T12:56:26;9.25;;;8.55;;
66860;SDS011;53770;42.334;23.550;2022-09-03T12:58:55;5.35;;;4.90;;
66860;SDS011;53770;42.334;23.550;2022-09-03T13:01:27;9.80;;;9.00;;
66860;SDS011;53770;42.334;23.550;2022-09-03T13:03:58;6.00;;;5.50;;
66860;SDS011;53770;42.334;23.550;2022-09-03T13:06:32;6.05;;;5.55;;
66860;SDS011;53770;42.334;23.550;2022-09-03T13:09:07;4.88;;;4.43;;
66860;SDS011;53770;42.334;23.550;2022-09-03T13:11:36;5.43;;;4.93;;
66860;SDS011;53770;42.334;23.550;2022-09-03T13:14:04;4.80;;;4.40;;
66860;SDS011;53770;42.334;23.550;2022-09-03T13:16:40;7.22;;;6.72;;
66860;SDS011;53770;42.334;23.550;2022-09-03T13:19:25;4.10;;;3.42;;
66860;SDS011;53770;42.334;23.550;2022-09-03T13:22:03;7.07;;;6.57;;
66860;SDS011;53770;42.334;23.550;2022-09-03T13:24:39;6.43;;;5.93;;
66860;SDS011;53770;42.334;23.550;2022-09-03T13:27:17;7.93;;;7.32;;
66860;SDS011;53770;42.334;23.550;2022-09-03T13:29:55;7.90;;;7.40;;
66860;SDS011;53770;42.334;23.550;2022-09-03T13:32:29;4.07;;;3.78;;
66860;SDS011;53770;42.334;23.550;2022-09-03T13:35:05;8.25;;;7.65;;
66860;SDS011;53770;42.334;23.550;2022-09-03T13:37:37;7.55;;;6.82;;
66860;SDS011;53770;42.334;23.550;2022-09-03T13:40:10;8.70;;;8.10;;
66860;SDS011;53770;42.334;23.550;2022-09-03T13:42:43;8.35;;;7.85;;
66860;SDS011;53770;42.334;23.550;2022-09-03T13:45:15;8.93;;;8.32;;
66860;SDS011;53770;42.334;23.550;2022-09-03T13:47:51;10.68;;;9.98;;
66860;SDS011;53770;42.334;23.550;2022-09-03T13:50:43;10.02;;;9.32;;
66860;SDS011;53770;42.334;23.550;2022-09-03T13:53:16;10.80;;;10.10;;
66860;SDS011;53770;42.334;23.550;2022-09-03T13:55:50;10.85;;;10.05;;
66860;SDS011;53770;42.334;23.550;2022-09-03T13:58:23;10.93;;;10.18;;
66860;SDS011;53770;42.334;23.550;2022-09-03T14:01:03;10.40;;;9.70;;
66860;SDS011;53770;42.334;23.550;2022-09-03T14:03:37;11.50;;;10.70;;
66860;SDS011;53770;42.334;23.550;2022-09-03T14:06:12;10.07;;;9.38;;
66860;SDS011;53770;42.334;23.550;2022-09-03T14:08:48;11.35;;;10.65;;
66860;SDS011;53770;42.334;23.550;2022-09-03T14:11:26;10.27;;;9.57;;
66860;SDS011;53770;42.334;23.550;2022-09-03T14:14:01;8.30;;;7.70;;
66860;SDS011;53770;42.334;23.550;2022-09-03T14:16:37;8.93;;;8.32;;
66860;SDS011;53770;42.334;23.550;2022-09-03T14:19:10;9.90;;;9.20;;
66860;SDS011;53770;42.334;23.550;2022-09-03T14:21:43;12.48;;;11.48;;
66860;SDS011;53770;42.334;23.550;2022-09-03T14:24:18;8.70;;;7.90;;
66860;SDS011;53770;42.334;23.550;2022-09-03T14:26:49;8.73;;;8.02;;
66860;SDS011;53770;42.334;23.550;2022-09-03T14:29:20;9.70;;;8.93;;
66860;SDS011;53770;42.334;23.550;2022-09-03T14:32:03;10.68;;;9.85;;
66860;SDS011;53770;42.334;23.550;2022-09-03T14:34:41;10.25;;;9.45;;
66860;SDS011;53770;42.334;23.550;2022-09-03T14:37:24;10.57;;;9.68;;
66860;SDS011;53770;42.334;23.550;2022-09-03T14:40:02;6.45;;;5.78;;
66860;SDS011;53770;42.334;23.550;2022-09-03T14:42:43;7.30;;;5.70;;
66860;SDS011;53770;42.334;23.550;2022-09-03T14:45:25;7.95;;;6.82;;
66860;SDS011;53770;42.334;23.550;2022-09-03T14:48:13;6.35;;;4.70;;
66860;SDS011;53770;42.334;23.550;2022-09-03T14:50:57;9.30;;;7.50;;
66860;SDS011;53770;42.334;23.550;2022-09-03T14:53:52;12.32;;;10.80;;
66860;SDS011;53770;42.334;23.550;2022-09-03T14:56:34;9.50;;;8.60;;
66860;SDS011;53770;42.334;23.550;2022-09-03T14:59:16;9.43;;;8.40;;
66860;SDS011;53770;42.334;23.550;2022-09-03T15:02:23;7.32;;;5.35;;